Flight Track Log - Related Links

Times and Time Zones

All times are in EDT time to prevent confusion due to time zone crossing. See the ASH3767 flight status page for this flight to view local times or setup timezone preferences in your user account.

Time Position Orientation Groundspeed Altitude Reporting Facility
EDT Latitude Longitude Course Direction KTS MPH feet Rate Location/Type
Thu 09:55:12 AM 41.9333 -87.9000 154° Southeast 171 197 2,000  Level Chicago TRACON
Thu 09:56:24 AM 41.8833 -87.8667 154° Southeast 229 264 4,400 2,333 Climbing Chicago TRACON
Thu 09:57:18 AM 41.8111 -87.8364 163° South 260 299 6,900 2,483 Climbing Chicago Center
Thu 09:58:20 AM 41.7325 -87.8450 185° South 282 325 9,200 2,323 Climbing Chicago Center
Thu 09:59:22 AM 41.6483 -87.8533 184° South 299 344 11,700 2,323 Climbing Chicago Center
Thu 10:00:24 AM 41.5600 -87.8622 184° South 316 364 14,000 1,887 Climbing Chicago Center
Thu 10:01:26 AM 41.4647 -87.8725 185° South 336 387 15,600 1,500 Climbing Chicago Center
Thu 10:02:28 AM 41.3606 -87.8817 184° South 366 421 17,100 1,258 Climbing Chicago Center
Thu 10:03:30 AM 41.2564 -87.8917 184° South 371 427 18,200 1,210 Climbing Chicago Center
Thu 10:04:32 AM 41.1258 -87.8886 179° South 390 449 19,600 1,161 Climbing Chicago Center
Thu 10:05:34 AM 41.0150 -87.8864 179° South 397 457 20,600 1,113 Climbing Chicago Center
Thu 10:06:36 AM 40.9036 -87.8814 178° South 401 461 21,900 1,210 Climbing Chicago Center
Thu 10:07:38 AM 40.7881 -87.8772 178° South 413 475 23,100 1,113 Climbing Chicago Center
Thu 10:08:40 AM 40.6681 -87.8750 179° South 427 491 24,200 1,355 Climbing Chicago Center
Thu 10:09:42 AM 40.5467 -87.8694 178° South 438 504 25,900 1,452 Climbing Chicago Center
Thu 10:10:44 AM 40.3994 -87.8667 179° South 442 509 27,200 1,113 Climbing Chicago Center
Thu 10:11:46 AM 40.2747 -87.8619 178° South 450 518 28,200 1,016 Climbing Chicago Center
Thu 10:12:48 AM 40.1503 -87.8567 178° South 465 535 29,300 964 Climbing Chicago Center
Thu 10:13:38 AM 40.0458 -87.8533 179° South 462 532 30,000 375 Climbing Indianapolis Center
Thu 10:14:40 AM 39.9128 -87.8467 178° South 473 544 30,000 336 Level Indianapolis Center
Thu 10:15:43 AM 39.7461 -87.8403 178° South 496 571 30,700 960 Climbing Indianapolis Center
Thu 10:16:45 AM 39.6122 -87.8342 178° South 490 564 32,000 1,113 Climbing Indianapolis Center
Thu 10:17:47 AM 39.4794 -87.8283 178° South 481 554 33,000 484 Climbing Indianapolis Center
Thu 10:18:49 AM 39.3281 -87.8208 178° South 490 564 33,000  Level Indianapolis Center
Thu 10:19:51 AM 39.1881 -87.8161 179° South 500 575 33,000  Level Indianapolis Center
Thu 10:20:53 AM 39.0497 -87.8106 178° South 497 572 33,000  Level Indianapolis Center
Thu 10:21:55 AM 38.9131 -87.8047 178° South 493 567 33,000  Level Indianapolis Center
Thu 10:22:57 AM 38.7769 -87.7992 178° South 491 565 33,000  Level Indianapolis Center
Thu 10:23:59 AM 38.6153 -87.7911 178° South 486 559 33,000  Level Indianapolis Center
Thu 10:25:01 AM 38.4786 -87.7853 178° South 491 565 33,000  Level Indianapolis Center
Thu 10:26:03 AM 38.3414 -87.7800 178° South 494 568 33,000  Level Indianapolis Center
Thu 10:27:05 AM 38.2042 -87.7739 178° South 495 570 33,000  Level Indianapolis Center
Thu 10:28:07 AM 38.0686 -87.7544 174° South 496 571 33,000  Level Indianapolis Center
Thu 10:29:09 AM 37.9453 -87.6883 157° South 486 559 33,000  Level Indianapolis Center
Thu 10:30:11 AM 37.7981 -87.6050 156° South 483 556 33,000  Level Indianapolis Center
Thu 10:31:13 AM 37.6781 -87.5367 156° South 483 556 33,000  Level Indianapolis Center
Thu 10:32:15 AM 37.5542 -87.4678 156° South 482 555 33,000  Level Indianapolis Center
Thu 10:33:17 AM 37.4300 -87.4003 157° South 481 554 33,000  Level Indianapolis Center
Thu 10:34:19 AM 37.3058 -87.3306 156° South 485 558 33,000  Level Indianapolis Center
Thu 10:35:21 AM 37.1619 -87.2506 156° South 482 555 33,000  Level Indianapolis Center
Thu 10:36:01 AM 37.0814 -87.2028 155° Southeast 484 557 33,000  Level Memphis Center
Thu 10:37:01 AM 36.9736 -87.1422 156° South 484 557 33,000  Level Memphis Center
Thu 10:38:01 AM 36.8508 -87.0772 157° South 484 557 33,000  Level Memphis Center
Thu 10:39:01 AM 36.7283 -87.0097 156° South 484 557 33,000  Level Memphis Center
Thu 10:40:01 AM 36.6078 -86.9422 156° South 484 557 33,000  Level Memphis Center
Thu 10:41:01 AM 36.4892 -86.8750 156° South 484 557 33,000  Level Memphis Center
Thu 10:42:01 AM 36.3619 -86.8083 157° South 489 563 33,000  Level Memphis Center
Thu 10:43:01 AM 36.2222 -86.7294 156° South 497 572 33,000  Level Memphis Center
Thu 10:44:01 AM 36.1056 -86.6603 154° Southeast 485 558 33,000  Level Memphis Center
Thu 10:45:01 AM 36.0094 -86.5825 147° Southeast 480 552 33,000  Level Memphis Center
Thu 10:47:09 AM 35.7731 -86.3908 147° Southeast 488 562 33,000  Level Atlanta Center
Thu 10:48:09 AM 35.6600 -86.3033 148° Southeast 482 555 33,000  Level Atlanta Center
Thu 10:49:09 AM 35.5406 -86.2056 146° Southeast 476 548 33,000  Level Atlanta Center
Thu 10:50:09 AM 35.4317 -86.1161 146° Southeast 476 548 33,000  Level Atlanta Center
Thu 10:51:09 AM 35.3183 -86.0292 148° Southeast 482 555 33,000  Level Atlanta Center
Thu 10:52:09 AM 35.2069 -85.9428 148° Southeast 476 548 33,000 -650 Level Atlanta Center
Thu 10:53:09 AM 35.1122 -85.8644 146° Southeast 471 542 31,700 -1,700 Descending Atlanta Center
Thu 10:54:09 AM 35.0050 -85.7783 147° Southeast 471 542 29,600 -2,100 Descending Atlanta Center
Thu 10:55:09 AM 34.8956 -85.6925 147° Southeast 471 542 27,500 -2,100 Descending Atlanta Center
Thu 10:56:09 AM 34.7881 -85.6094 148° Southeast 471 542 25,400 -2,100 Descending Atlanta Center
Thu 10:57:09 AM 34.6847 -85.5267 147° Southeast 459 528 23,300 -2,100 Descending Atlanta Center
Thu 10:58:09 AM 34.5833 -85.4517 149° Southeast 446 513 21,200 -2,100 Descending Atlanta Center
Thu 10:59:09 AM 34.4861 -85.3744 147° Southeast 434 499 19,100 -2,000 Descending Atlanta Center
Thu 11:00:09 AM 34.3911 -85.3000 147° Southeast 420 483 17,200 -1,750 Descending Atlanta Center
Thu 11:01:09 AM 34.3019 -85.2308 147° Southeast 403 464 15,600 -1,550 Descending Atlanta Center
Thu 11:02:09 AM 34.2108 -85.1617 148° Southeast 397 457 14,100 -800 Descending Atlanta Center
Thu 11:03:09 AM 34.1300 -85.0803 140° Southeast 386 444 14,000 -50 Descending Atlanta Center
Thu 11:04:09 AM 34.0578 -84.9867 133° Southeast 379 436 14,000  Level Atlanta Center
Thu 11:05:09 AM 33.9875 -84.9006 135° Southeast 368 423 14,000 -200 Level Atlanta Center
Thu 11:06:09 AM 33.9169 -84.8097 133° Southeast 363 418 13,600 -1,000 Descending Atlanta Center
Thu 11:06:57 AM 33.8500 -84.7167 131° Southeast 371 427 12,200 -889 Descending Atlanta TRACON
Thu 11:07:57 AM 33.7833 -84.6333 134° Southeast 350 403 12,000 -158 Descending Atlanta TRACON
Thu 11:08:51 AM 33.7333 -84.5667 132° Southeast 296 341 11,900 -579 Descending Atlanta TRACON
Thu 11:09:51 AM 33.7333 -84.4833 90° East 265 305 10,900 -1,500 Descending Atlanta TRACON
Thu 11:10:51 AM 33.7333 -84.4000 90° East 254 292 8,900 -2,158 Descending Atlanta TRACON
Thu 11:11:45 AM 33.7333 -84.3167 90° East 238 274 6,800 -2,421 Descending Atlanta TRACON
Thu 11:12:45 AM 33.7333 -84.2500 90° East 227 261 4,300 -1,650 Descending Atlanta TRACON
Thu 11:13:45 AM 33.6833 -84.2333 164° South 184 212 3,500 -650 Descending Atlanta TRACON
Thu 11:14:45 AM 33.6500 -84.2667 220° Southwest 190 219 3,000 -600 Descending Atlanta TRACON
Thu 11:15:45 AM 33.6500 -84.3333 270° West 162 186 2,300 -737 Descending Atlanta TRACON
Thu 11:16:39 AM 33.6500 -84.3667 270° West 140 161 1,600 -778 Descending Atlanta TRACON
Thu 11:18:00 AM 33.6333 -84.4167 North  Level FlightAware Approximate
Thu 11:25:00 AM 33.6367 -84.4279 North  Level Estimated
Thu 11:26:00 AM 33.6367 -84.4279 North  Level Estimated

Login

Don't have an account? Register now (free) for customized features, flight alerts, and more!